createdAt,value
2024-03-16T00:00:08.786Z,60.16
2024-03-16T00:02:37.049Z,60.08
2024-03-16T00:05:04.618Z,60.09
2024-03-16T00:07:31.835Z,60.21
2024-03-16T00:09:59.160Z,60.11
2024-03-16T00:12:26.432Z,60.20
2024-03-16T00:14:54.555Z,60.18
2024-03-16T00:17:21.882Z,60.31
2024-03-16T00:19:49.531Z,60.47
2024-03-16T00:22:16.765Z,60.30
2024-03-16T00:24:44.002Z,60.43
2024-03-16T00:27:11.237Z,60.45
2024-03-16T00:29:38.462Z,60.53
2024-03-16T00:32:05.988Z,60.57
2024-03-16T00:34:33.823Z,60.68
2024-03-16T00:37:05.406Z,60.71
2024-03-16T00:39:32.974Z,60.59
2024-03-16T00:42:00.236Z,60.77
2024-03-16T00:44:28.347Z,60.86
2024-03-16T00:46:55.522Z,60.90
2024-03-16T00:49:22.749Z,60.94
2024-03-16T00:51:51.124Z,60.82
2024-03-16T00:54:19.091Z,61.02
2024-03-16T00:56:47.375Z,60.96
2024-03-16T00:59:15.453Z,61.09
2024-03-16T01:01:42.618Z,61.01
2024-03-16T01:04:10.293Z,61.10
2024-03-16T01:06:38.057Z,61.11
2024-03-16T01:09:05.412Z,61.17
2024-03-16T01:11:33.221Z,61.11
2024-03-16T01:14:00.589Z,61.27
2024-03-16T01:16:27.857Z,61.32
2024-03-16T01:18:55.095Z,61.35
2024-03-16T01:21:22.925Z,61.38
2024-03-16T01:23:50.133Z,61.45
2024-03-16T01:26:17.323Z,61.48
2024-03-16T01:28:44.558Z,61.52
2024-03-16T01:31:14.439Z,61.58
2024-03-16T01:33:42.237Z,61.64
2024-03-16T01:36:09.390Z,61.74
2024-03-16T01:38:37.416Z,61.67
2024-03-16T01:41:04.655Z,61.55
2024-03-16T01:43:32.101Z,61.65
2024-03-16T01:45:59.415Z,61.74
2024-03-16T01:48:26.780Z,61.82
2024-03-16T01:50:55.300Z,61.92
2024-03-16T01:53:22.584Z,61.82
2024-03-16T01:55:49.956Z,61.95
2024-03-16T01:58:17.126Z,62.01
2024-03-16T02:00:48.019Z,61.98
2024-03-16T02:03:15.270Z,61.91
2024-03-16T02:05:42.723Z,61.91
2024-03-16T02:08:10.253Z,61.87
2024-03-16T02:10:37.436Z,62.12
2024-03-16T02:13:04.669Z,62.13
2024-03-16T02:15:33.172Z,62.15
2024-03-16T02:18:00.422Z,62.10
2024-03-16T02:20:27.890Z,62.11
2024-03-16T02:22:55.480Z,62.08
2024-03-16T02:25:23.465Z,62.21
2024-03-16T02:27:51.338Z,62.20
2024-03-16T02:30:18.591Z,62.27
2024-03-16T02:32:45.837Z,62.25
2024-03-16T02:35:13.701Z,62.30
2024-03-16T02:37:41.466Z,62.37
2024-03-16T02:40:12.771Z,62.52
2024-03-16T02:42:43.017Z,62.53
2024-03-16T02:45:11.722Z,62.50
2024-03-16T02:47:39.505Z,62.46
2024-03-16T02:50:07.874Z,62.63
2024-03-16T02:52:35.058Z,62.64
2024-03-16T02:55:02.460Z,62.66
2024-03-16T02:57:29.751Z,62.67
2024-03-16T02:59:56.996Z,62.77
2024-03-16T03:02:24.701Z,62.82
2024-03-16T03:04:51.931Z,62.82
2024-03-16T03:07:19.370Z,62.93
2024-03-16T03:09:48.036Z,62.87
2024-03-16T03:12:15.360Z,62.85
2024-03-16T03:14:42.553Z,62.89
2024-03-16T03:17:09.785Z,63.02
2024-03-16T03:19:37.136Z,62.97
2024-03-16T03:22:04.487Z,62.89
2024-03-16T03:24:32.259Z,62.94
2024-03-16T03:26:59.864Z,63.05
2024-03-16T03:29:27.142Z,63.12
2024-03-16T03:31:57.367Z,63.19
2024-03-16T03:34:25.027Z,63.11
2024-03-16T03:36:52.254Z,63.31
2024-03-16T03:39:19.585Z,63.33
2024-03-16T03:41:47.186Z,63.34
2024-03-16T03:44:21.863Z,63.35
2024-03-16T03:46:52.431Z,63.28
2024-03-16T03:49:36.203Z,63.41
2024-03-16T03:52:05.718Z,63.46
2024-03-16T03:54:35.196Z,63.47
2024-03-16T03:57:02.625Z,63.53
2024-03-16T03:59:30.448Z,63.51
2024-03-16T04:01:57.740Z,63.61
2024-03-16T04:04:25.005Z,63.65
2024-03-16T04:06:52.224Z,63.52
2024-03-16T04:09:20.084Z,63.53
2024-03-16T04:11:47.227Z,63.62
2024-03-16T04:14:14.389Z,63.64
2024-03-16T04:16:41.615Z,63.77
2024-03-16T04:19:08.931Z,63.79
2024-03-16T04:21:36.383Z,63.79
2024-03-16T04:24:03.751Z,63.79
2024-03-16T04:26:30.974Z,63.91
2024-03-16T04:28:58.161Z,63.99
2024-03-16T04:31:25.505Z,64.08
2024-03-16T04:33:53.050Z,64.24
2024-03-16T04:36:20.237Z,64.27
2024-03-16T04:38:47.404Z,64.22
2024-03-16T04:41:14.564Z,64.27
2024-03-16T04:43:42.286Z,64.31
2024-03-16T04:46:09.573Z,64.30
2024-03-16T04:48:36.950Z,64.40
2024-03-16T04:51:04.420Z,64.61
2024-03-16T04:53:31.764Z,64.62
2024-03-16T04:55:59.737Z,64.75
2024-03-16T04:58:27.028Z,64.82
2024-03-16T05:00:54.460Z,64.69
2024-03-16T05:03:21.757Z,64.91
2024-03-16T05:05:51.494Z,64.92
2024-03-16T05:08:18.658Z,64.98
2024-03-16T05:10:53.145Z,65.03
2024-03-16T05:13:20.516Z,65.15
2024-03-16T05:15:47.814Z,65.12
2024-03-16T05:18:15.040Z,65.29
2024-03-16T05:20:42.357Z,65.21
2024-03-16T05:23:09.603Z,65.31
2024-03-16T05:25:38.099Z,65.38
2024-03-16T05:28:05.488Z,65.24
2024-03-16T05:30:32.841Z,65.38
2024-03-16T05:33:00.244Z,65.42
2024-03-16T05:35:29.638Z,65.47
2024-03-16T05:37:57.248Z,65.51
2024-03-16T05:40:25.533Z,65.62
2024-03-16T05:42:52.872Z,65.61
2024-03-16T05:45:20.078Z,65.69
2024-03-16T05:47:47.321Z,65.73
2024-03-16T05:50:15.043Z,65.86
2024-03-16T05:52:42.246Z,65.96
2024-03-16T05:55:09.699Z,65.89
2024-03-16T05:57:37.269Z,65.95
2024-03-16T06:00:14.384Z,65.93
2024-03-16T06:02:41.693Z,65.84
2024-03-16T06:05:10.316Z,65.80
2024-03-16T06:07:37.600Z,66.02
2024-03-16T06:10:05.115Z,65.92
2024-03-16T06:12:32.532Z,65.99
2024-03-16T06:14:59.849Z,66.11
2024-03-16T06:17:27.159Z,66.06
2024-03-16T06:19:55.256Z,66.14
2024-03-16T06:22:22.903Z,66.15
2024-03-16T06:24:50.733Z,66.12
2024-03-16T06:27:22.259Z,66.19
2024-03-16T06:29:53.309Z,66.07
2024-03-16T06:32:21.564Z,66.10
2024-03-16T06:34:51.413Z,66.05
2024-03-16T06:37:21.069Z,66.14
2024-03-16T06:39:48.355Z,66.14
2024-03-16T06:42:15.708Z,66.17
2024-03-16T06:44:42.885Z,66.22
2024-03-16T06:47:10.069Z,66.25
2024-03-16T06:49:37.283Z,66.34
2024-03-16T06:52:04.955Z,66.50
2024-03-16T06:54:32.346Z,66.40
2024-03-16T06:56:59.640Z,66.48
2024-03-16T06:59:27.745Z,66.46
2024-03-16T07:01:55.569Z,66.51
2024-03-16T07:04:23.035Z,66.56
2024-03-16T07:06:50.274Z,66.64
2024-03-16T07:09:19.319Z,66.72
2024-03-16T07:11:48.411Z,66.79
2024-03-16T07:14:16.233Z,66.85
2024-03-16T07:16:43.595Z,66.74
2024-03-16T07:19:11.094Z,66.66
2024-03-16T07:21:38.763Z,66.53
2024-03-16T07:24:08.057Z,66.59
2024-03-16T07:26:35.212Z,66.68
2024-03-16T07:29:02.375Z,66.62
2024-03-16T07:31:29.595Z,66.73
2024-03-16T07:33:59.291Z,66.60
2024-03-16T07:36:28.082Z,66.53
2024-03-16T07:38:55.612Z,66.55
2024-03-16T07:41:22.790Z,66.77
2024-03-16T07:43:50.759Z,66.74
2024-03-16T07:46:20.585Z,66.56
2024-03-16T07:48:47.983Z,66.57
2024-03-16T07:51:17.851Z,66.53
2024-03-16T07:53:45.099Z,66.46
2024-03-16T07:56:12.320Z,66.47
2024-03-16T07:58:39.453Z,66.42
2024-03-16T08:01:07.029Z,66.62
2024-03-16T08:03:34.334Z,66.81
2024-03-16T08:06:06.040Z,66.44
2024-03-16T08:08:34.157Z,66.36
2024-03-16T08:11:01.501Z,66.32
2024-03-16T08:13:28.846Z,66.46
2024-03-16T08:15:56.173Z,66.64
2024-03-16T08:18:23.456Z,66.89
2024-03-16T08:20:50.672Z,66.66
2024-03-16T08:23:19.921Z,66.96
2024-03-16T08:25:48.068Z,66.78
2024-03-16T08:28:15.997Z,66.62
2024-03-16T08:30:43.834Z,66.78
2024-03-16T08:33:11.591Z,66.73
2024-03-16T08:35:38.866Z,66.74
2024-03-16T08:38:06.123Z,66.87
2024-03-16T08:40:34.052Z,66.86
2024-03-16T08:43:01.510Z,66.65
2024-03-16T08:45:28.785Z,66.83
2024-03-16T08:47:56.074Z,67.02
2024-03-16T08:50:23.397Z,66.71
2024-03-16T08:52:50.854Z,66.61
2024-03-16T08:55:19.044Z,66.57
2024-03-16T08:57:46.418Z,66.68
2024-03-16T09:00:16.720Z,66.67
2024-03-16T09:02:44.338Z,66.71
2024-03-16T09:05:11.805Z,66.62
2024-03-16T09:07:40.143Z,66.58
2024-03-16T09:10:08.718Z,66.22
2024-03-16T09:12:36.182Z,65.85
2024-03-16T09:15:07.253Z,65.75
2024-03-16T09:17:35.153Z,66.04
2024-03-16T09:20:09.189Z,66.29
2024-03-16T09:22:38.166Z,65.54
2024-03-16T09:25:06.471Z,65.17
2024-03-16T09:27:34.642Z,65.16
2024-03-16T09:30:02.583Z,65.35
2024-03-16T09:32:30.010Z,65.20
2024-03-16T09:34:57.172Z,65.55
2024-03-16T09:37:24.409Z,65.41
2024-03-16T09:39:52.856Z,65.75
2024-03-16T09:42:22.840Z,65.98
2024-03-16T09:44:50.156Z,65.88
2024-03-16T09:47:17.268Z,65.44
2024-03-16T09:49:44.476Z,65.70
2024-03-16T09:52:17.187Z,65.58
2024-03-16T09:54:44.654Z,65.49
2024-03-16T09:57:15.854Z,65.12
2024-03-16T09:59:49.866Z,64.83
2024-03-16T10:02:20.798Z,64.50
2024-03-16T10:04:49.187Z,64.59
2024-03-16T10:07:17.003Z,64.16
2024-03-16T10:10:00.309Z,63.88
2024-03-16T10:12:28.665Z,63.63
2024-03-16T10:15:18.030Z,63.36
2024-03-16T10:17:45.193Z,63.39
2024-03-16T10:20:17.112Z,63.70
2024-03-16T10:22:48.116Z,63.75
2024-03-16T10:25:16.827Z,63.98
2024-03-16T10:27:45.430Z,64.30
2024-03-16T10:30:16.187Z,64.34
2024-03-16T10:32:49.876Z,64.35
2024-03-16T10:35:26.280Z,64.36
2024-03-16T10:37:53.981Z,64.49
2024-03-16T10:40:25.457Z,64.69
2024-03-16T10:42:52.635Z,64.46
2024-03-16T10:45:24.730Z,64.68
2024-03-16T10:47:53.640Z,64.71
2024-03-16T10:50:25.420Z,64.67
2024-03-16T10:52:54.106Z,64.53
2024-03-16T10:55:24.076Z,64.74
2024-03-16T10:57:53.934Z,64.89
2024-03-16T11:00:27.159Z,64.67
2024-03-16T11:03:17.957Z,64.31
2024-03-16T11:05:49.033Z,64.38
2024-03-16T11:08:16.154Z,64.15
2024-03-16T11:10:44.779Z,63.76
2024-03-16T11:13:16.250Z,63.95
2024-03-16T11:15:47.095Z,63.79
2024-03-16T11:18:17.405Z,63.86
2024-03-16T11:20:45.035Z,63.19
2024-03-16T11:23:29.465Z,62.93
2024-03-16T11:26:02.036Z,62.70
2024-03-16T11:28:45.518Z,62.58
2024-03-16T11:31:41.774Z,62.96
2024-03-16T11:34:15.073Z,62.95
2024-03-16T11:36:43.297Z,62.57
2024-03-16T11:39:13.659Z,62.35
2024-03-16T11:41:45.160Z,62.40
2024-03-16T11:44:16.896Z,62.42
2024-03-16T11:46:45.711Z,62.46
2024-03-16T11:49:15.851Z,62.80
2024-03-16T11:51:44.150Z,62.42
2024-03-16T11:54:15.052Z,62.06
2024-03-16T11:56:43.878Z,61.95
2024-03-16T11:59:17.242Z,62.49
2024-03-16T12:01:47.997Z,62.55
2024-03-16T12:04:18.956Z,62.38
2024-03-16T12:06:49.576Z,62.26
2024-03-16T12:09:18.447Z,62.14
2024-03-16T12:11:47.394Z,61.22
2024-03-16T12:14:22.878Z,61.16
2024-03-16T12:16:54.651Z,60.93
2024-03-16T12:19:21.925Z,60.62
2024-03-16T12:21:50.205Z,60.42
2024-03-16T12:24:19.035Z,60.49
2024-03-16T12:26:48.565Z,60.89
2024-03-16T12:29:18.263Z,61.00
2024-03-16T12:31:46.641Z,60.94
2024-03-16T12:34:14.968Z,60.91
2024-03-16T12:36:42.914Z,60.92
2024-03-16T12:39:11.965Z,60.95
2024-03-16T12:41:42.140Z,60.60
2024-03-16T12:44:10.480Z,60.44
2024-03-16T12:46:37.660Z,60.31
2024-03-16T12:49:05.108Z,60.13
2024-03-16T12:51:35.687Z,60.08
2024-03-16T12:54:03.382Z,60.07
2024-03-16T12:56:33.270Z,60.03
2024-03-16T12:59:00.438Z,60.29
2024-03-16T13:01:32.009Z,60.35
2024-03-16T13:04:00.761Z,60.58
2024-03-16T13:06:28.009Z,60.94
2024-03-16T13:08:55.368Z,61.19
2024-03-16T13:11:26.101Z,61.53
2024-03-16T13:13:53.320Z,61.80
2024-03-16T13:16:20.566Z,62.37
2024-03-16T13:18:47.792Z,62.90
2024-03-16T13:21:15.156Z,63.93
2024-03-16T13:23:42.410Z,63.97
2024-03-16T13:26:13.462Z,63.62
2024-03-16T13:28:40.693Z,63.34
2024-03-16T13:31:10.335Z,63.05
2024-03-16T13:33:37.478Z,63.00
2024-03-16T13:36:05.894Z,62.52
2024-03-16T13:38:33.462Z,62.01
2024-03-16T13:41:00.738Z,61.43
2024-03-16T13:43:29.091Z,60.83
2024-03-16T13:45:56.381Z,60.52
2024-03-16T13:48:25.973Z,59.56
2024-03-16T13:50:53.228Z,58.96
2024-03-16T13:53:21.840Z,59.01
2024-03-16T13:55:50.129Z,59.48
2024-03-16T13:58:17.317Z,58.64
2024-03-16T14:00:44.688Z,58.22
2024-03-16T14:03:13.396Z,58.18
2024-03-16T14:05:40.672Z,57.43
2024-03-16T14:08:07.873Z,57.84
2024-03-16T14:10:35.081Z,58.76
2024-03-16T14:13:02.481Z,59.13
2024-03-16T14:15:30.574Z,57.67
2024-03-16T14:17:58.259Z,56.85
2024-03-16T14:20:31.772Z,56.32
2024-03-16T14:22:58.936Z,56.59
2024-03-16T14:25:29.122Z,56.46
2024-03-16T14:27:58.231Z,56.17
2024-03-16T14:30:25.408Z,56.53
2024-03-16T14:32:52.701Z,57.02
2024-03-16T14:35:20.495Z,57.21
2024-03-16T14:37:47.753Z,57.73
2024-03-16T14:40:22.695Z,57.97
2024-03-16T14:42:50.210Z,56.75
2024-03-16T14:45:17.383Z,56.83
2024-03-16T14:47:44.580Z,56.18
2024-03-16T14:50:14.105Z,55.88
2024-03-16T14:52:44.266Z,55.93
2024-03-16T14:55:11.500Z,55.96
2024-03-16T14:57:39.470Z,55.87
2024-03-16T15:00:07.745Z,55.92
2024-03-16T15:02:35.687Z,55.86
2024-03-16T15:05:09.577Z,55.75
2024-03-16T15:07:39.423Z,55.85
2024-03-16T15:10:07.466Z,55.92
2024-03-16T15:12:34.716Z,56.04
2024-03-16T15:15:01.889Z,55.99
2024-03-16T15:17:29.032Z,56.06
2024-03-16T15:19:56.279Z,56.00
2024-03-16T15:22:23.490Z,56.16
2024-03-16T15:24:50.892Z,56.26
2024-03-16T15:27:23.736Z,56.22
2024-03-16T15:29:50.947Z,56.30
2024-03-16T15:32:18.218Z,56.28
2024-03-16T15:34:45.498Z,56.38
2024-03-16T15:37:12.925Z,56.39
2024-03-16T15:39:40.206Z,56.51
2024-03-16T15:42:07.996Z,56.51
2024-03-16T15:44:35.307Z,56.60
2024-03-16T15:47:02.578Z,56.51
2024-03-16T15:49:30.188Z,56.31
2024-03-16T15:52:06.848Z,56.41
2024-03-16T15:54:39.540Z,56.79
2024-03-16T15:57:07.254Z,56.68
2024-03-16T15:59:35.053Z,56.82
2024-03-16T16:02:02.234Z,56.87
2024-03-16T16:04:29.496Z,56.93
2024-03-16T16:06:57.398Z,57.02
2024-03-16T16:09:24.579Z,57.06
2024-03-16T16:11:51.879Z,57.19
2024-03-16T16:14:19.625Z,57.42
2024-03-16T16:16:46.871Z,57.44
2024-03-16T16:19:14.038Z,57.63
2024-03-16T16:21:41.219Z,57.64
2024-03-16T16:24:09.052Z,57.81
2024-03-16T16:26:36.701Z,57.82
2024-03-16T16:29:04.155Z,57.82
2024-03-16T16:31:32.417Z,57.88
2024-03-16T16:34:00.140Z,58.00
2024-03-16T16:36:27.289Z,58.17
2024-03-16T16:38:54.539Z,58.15
2024-03-16T16:41:21.728Z,58.35
2024-03-16T16:43:48.939Z,58.32
2024-03-16T16:46:16.129Z,58.51
2024-03-16T16:48:43.392Z,58.63
2024-03-16T16:51:11.212Z,58.69
2024-03-16T16:53:38.427Z,58.65
2024-03-16T16:56:06.509Z,58.85
2024-03-16T16:58:34.686Z,58.84
2024-03-16T17:01:04.590Z,59.05
2024-03-16T17:03:32.452Z,59.03
2024-03-16T17:06:01.406Z,59.21
2024-03-16T17:08:29.107Z,59.41
2024-03-16T17:10:56.368Z,59.48
2024-03-16T17:13:23.573Z,59.79
2024-03-16T17:15:51.176Z,60.02
2024-03-16T17:18:18.747Z,60.29
2024-03-16T17:20:47.748Z,60.55
2024-03-16T17:23:14.967Z,60.70
2024-03-16T17:25:42.217Z,60.87
2024-03-16T17:28:09.465Z,61.04
2024-03-16T17:30:40.622Z,61.32
2024-03-16T17:33:08.255Z,61.47
2024-03-16T17:35:37.393Z,61.58
2024-03-16T17:38:11.121Z,61.77
2024-03-16T17:40:38.402Z,61.91
2024-03-16T17:43:08.616Z,62.03
2024-03-16T17:45:36.565Z,62.16
2024-03-16T17:48:03.969Z,62.30
2024-03-16T17:50:31.158Z,62.20
2024-03-16T17:52:58.488Z,62.28
2024-03-16T17:55:27.388Z,62.45
2024-03-16T17:57:59.257Z,62.41
2024-03-16T18:00:30.717Z,62.39
2024-03-16T18:02:57.929Z,62.55
2024-03-16T18:05:27.138Z,62.50
2024-03-16T18:07:54.372Z,62.45
2024-03-16T18:10:21.669Z,62.38
2024-03-16T18:12:49.106Z,62.41
2024-03-16T18:15:16.541Z,62.27
2024-03-16T18:17:47.128Z,62.45
2024-03-16T18:20:19.643Z,62.41
2024-03-16T18:22:46.840Z,62.38
2024-03-16T18:25:14.045Z,62.63
2024-03-16T18:27:42.130Z,62.60
2024-03-16T18:30:10.466Z,62.65
2024-03-16T18:32:37.677Z,62.81
2024-03-16T18:35:05.341Z,62.90
2024-03-16T18:37:32.649Z,62.95
2024-03-16T18:40:01.048Z,63.04
2024-03-16T18:42:28.355Z,63.24
2024-03-16T18:44:55.707Z,63.25
2024-03-16T18:47:22.896Z,63.36
2024-03-16T18:49:53.185Z,63.09
2024-03-16T18:52:20.370Z,63.17
2024-03-16T18:54:47.730Z,63.38
2024-03-16T18:57:17.287Z,63.33
2024-03-16T18:59:44.710Z,63.55
2024-03-16T19:02:12.052Z,63.52
2024-03-16T19:04:39.391Z,63.73
2024-03-16T19:07:07.054Z,63.69
2024-03-16T19:09:34.300Z,63.68
2024-03-16T19:12:01.493Z,63.74
2024-03-16T19:14:28.991Z,63.92
2024-03-16T19:16:58.314Z,63.84
2024-03-16T19:19:27.815Z,63.86
2024-03-16T19:21:54.992Z,64.03
2024-03-16T19:24:22.253Z,63.91
2024-03-16T19:26:49.688Z,63.95
2024-03-16T19:29:16.804Z,64.02
2024-03-16T19:31:43.980Z,63.80
2024-03-16T19:34:11.219Z,63.32
2024-03-16T19:36:38.400Z,62.99
2024-03-16T19:39:05.613Z,62.68
2024-03-16T19:41:32.771Z,62.52
2024-03-16T19:44:00.211Z,62.77
2024-03-16T19:46:28.292Z,62.73
2024-03-16T19:48:55.546Z,62.88
2024-03-16T19:51:22.733Z,63.01
2024-03-16T19:53:49.917Z,62.99
2024-03-16T19:56:17.232Z,63.01
2024-03-16T19:58:44.509Z,62.97
2024-03-16T20:01:11.742Z,63.02
2024-03-16T20:03:42.562Z,62.89
2024-03-16T20:06:13.893Z,62.73
2024-03-16T20:08:41.108Z,62.78
2024-03-16T20:11:08.875Z,62.93
2024-03-16T20:13:36.027Z,62.87
2024-03-16T20:16:04.236Z,62.81
2024-03-16T20:18:31.481Z,62.87
2024-03-16T20:21:03.012Z,62.82
2024-03-16T20:23:30.224Z,62.90
2024-03-16T20:25:57.391Z,62.83
2024-03-16T20:28:24.772Z,62.92
2024-03-16T20:30:51.912Z,63.03
2024-03-16T20:33:19.092Z,62.98
2024-03-16T20:35:47.004Z,63.02
2024-03-16T20:38:14.143Z,62.97
2024-03-16T20:40:41.503Z,63.03
2024-03-16T20:43:10.456Z,63.20
2024-03-16T20:45:37.647Z,63.30
2024-03-16T20:48:05.031Z,63.26
2024-03-16T20:50:32.210Z,63.00
2024-03-16T20:52:59.536Z,63.07
2024-03-16T20:55:27.705Z,63.14
2024-03-16T20:57:56.090Z,63.07
2024-03-16T21:00:24.952Z,63.07
2024-03-16T21:02:52.317Z,63.10
2024-03-16T21:05:19.506Z,63.17
2024-03-16T21:07:46.681Z,63.25
2024-03-16T21:10:15.914Z,63.15
2024-03-16T21:12:43.143Z,63.13
2024-03-16T21:15:10.637Z,63.08
2024-03-16T21:17:37.881Z,63.03
2024-03-16T21:20:05.859Z,63.01
2024-03-16T21:22:36.956Z,63.07
2024-03-16T21:25:04.614Z,63.17
2024-03-16T21:27:31.803Z,63.25
2024-03-16T21:29:58.969Z,63.16
2024-03-16T21:32:26.217Z,63.25
2024-03-16T21:34:56.778Z,63.35
2024-03-16T21:37:24.229Z,63.29
2024-03-16T21:39:51.376Z,63.28
2024-03-16T21:42:20.302Z,63.45
2024-03-16T21:44:47.566Z,63.50
2024-03-16T21:47:14.708Z,63.47
2024-03-16T21:49:44.627Z,63.42
2024-03-16T21:52:11.859Z,63.63
2024-03-16T21:54:40.468Z,63.54
2024-03-16T21:57:07.663Z,63.55
2024-03-16T21:59:34.993Z,63.69
2024-03-16T22:02:02.461Z,63.66
2024-03-16T22:04:30.425Z,63.77
2024-03-16T22:06:58.802Z,63.86
2024-03-16T22:09:26.106Z,63.80
2024-03-16T22:11:54.125Z,63.69
2024-03-16T22:14:21.350Z,63.67
2024-03-16T22:16:48.489Z,63.65
2024-03-16T22:19:15.639Z,63.88
2024-03-16T22:21:42.837Z,63.69
2024-03-16T22:24:09.998Z,63.69
2024-03-16T22:26:37.162Z,63.71
2024-03-16T22:29:04.360Z,63.70
2024-03-16T22:31:31.599Z,63.63
2024-03-16T22:33:59.164Z,63.57
2024-03-16T22:36:28.981Z,63.52
2024-03-16T22:38:56.104Z,63.50
2024-03-16T22:41:23.207Z,63.67
2024-03-16T22:43:50.604Z,63.66
2024-03-16T22:46:17.752Z,63.68
2024-03-16T22:48:44.941Z,63.65
2024-03-16T22:51:12.145Z,63.68
2024-03-16T22:53:39.306Z,63.70
2024-03-16T22:56:06.725Z,63.61
2024-03-16T22:58:34.000Z,63.58
2024-03-16T23:01:04.641Z,63.65
2024-03-16T23:03:32.383Z,63.62
2024-03-16T23:06:02.141Z,63.55
2024-03-16T23:08:30.974Z,63.69
2024-03-16T23:10:58.166Z,63.55
2024-03-16T23:13:27.143Z,63.57
2024-03-16T23:15:57.329Z,63.58
2024-03-16T23:18:24.440Z,63.60
2024-03-16T23:20:54.871Z,63.52
2024-03-16T23:23:22.001Z,63.42
2024-03-16T23:25:49.554Z,63.42
2024-03-16T23:28:17.117Z,63.43
2024-03-16T23:30:44.832Z,63.64
2024-03-16T23:33:13.012Z,63.58
2024-03-16T23:35:40.194Z,63.41
2024-03-16T23:38:07.420Z,63.42
2024-03-16T23:40:34.705Z,63.46
2024-03-16T23:43:02.022Z,63.53
2024-03-16T23:45:29.277Z,63.37
2024-03-16T23:47:56.467Z,63.37
2024-03-16T23:50:23.741Z,63.41
2024-03-16T23:52:50.906Z,63.39
2024-03-16T23:55:18.783Z,63.42
2024-03-16T23:57:45.918Z,63.46
